createdAt,value
2018-01-05T00:00:21.866Z,7.70
2018-01-05T00:02:49.385Z,7.60
2018-01-05T00:05:16.921Z,7.60
2018-01-05T00:07:44.433Z,7.60
2018-01-05T00:10:11.949Z,7.60
2018-01-05T00:12:39.459Z,7.70
2018-01-05T00:15:06.952Z,7.60
2018-01-05T00:17:34.456Z,7.60
2018-01-05T00:20:02.722Z,7.70
2018-01-05T00:22:30.201Z,7.70
2018-01-05T00:24:57.693Z,7.70
2018-01-05T00:27:25.171Z,7.70
2018-01-05T00:29:52.662Z,7.70
2018-01-05T00:32:20.942Z,7.70
2018-01-05T00:34:49.220Z,7.70
2018-01-05T00:37:17.458Z,7.70
2018-01-05T00:39:44.961Z,7.70
2018-01-05T00:42:12.512Z,7.70
2018-01-05T00:44:40.782Z,7.70
2018-01-05T00:47:09.059Z,7.60
2018-01-05T00:49:37.345Z,7.60
2018-01-05T00:52:05.574Z,7.70
2018-01-05T00:54:33.085Z,7.70
2018-01-05T00:57:00.603Z,7.60
2018-01-05T00:59:28.109Z,7.70
2018-01-05T01:01:55.593Z,7.60
2018-01-05T01:04:23.123Z,7.60
2018-01-05T01:06:50.663Z,7.60
2018-01-05T01:09:18.898Z,7.60
2018-01-05T01:11:46.417Z,7.60
2018-01-05T01:14:13.969Z,7.60
2018-01-05T01:16:42.215Z,7.60
2018-01-05T01:19:09.702Z,7.60
2018-01-05T01:21:37.975Z,7.60
2018-01-05T01:24:05.494Z,7.60
2018-01-05T01:26:32.972Z,7.70
2018-01-05T01:29:00.572Z,7.60
2018-01-05T01:31:28.102Z,7.60
2018-01-05T01:33:55.585Z,7.60
2018-01-05T01:36:23.838Z,7.70
2018-01-05T01:38:51.305Z,7.60
2018-01-05T01:41:18.787Z,7.60
2018-01-05T01:43:46.289Z,7.60
2018-01-05T01:46:13.809Z,7.70
2018-01-05T01:48:48.957Z,7.60
2018-01-05T01:51:16.494Z,7.60
2018-01-05T01:53:44.765Z,7.60
2018-01-05T01:56:13.004Z,7.60
2018-01-05T01:58:40.481Z,7.60
2018-01-05T02:01:07.982Z,7.60
2018-01-05T02:03:35.511Z,7.60
2018-01-05T02:06:03.778Z,7.60
2018-01-05T02:08:31.275Z,7.60
2018-01-05T02:10:58.778Z,7.60
2018-01-05T02:13:26.254Z,7.60
2018-01-05T02:15:53.786Z,7.60
2018-01-05T02:18:21.333Z,7.60
2018-01-05T02:20:48.817Z,7.60
2018-01-05T02:23:16.317Z,7.60
2018-01-05T02:25:43.825Z,7.60
2018-01-05T02:28:11.362Z,7.60
2018-01-05T02:30:38.894Z,7.60
2018-01-05T02:33:06.408Z,7.60
2018-01-05T02:35:33.931Z,7.70
2018-01-05T02:38:01.450Z,7.70
2018-01-05T02:40:29.713Z,7.70
2018-01-05T02:42:57.202Z,7.60
2018-01-05T02:45:24.685Z,7.70
2018-01-05T02:47:52.163Z,7.70
2018-01-05T02:50:19.649Z,7.70
2018-01-05T02:52:47.181Z,7.70
2018-01-05T02:55:14.661Z,7.70
2018-01-05T02:57:42.164Z,7.60
2018-01-05T03:00:09.654Z,7.60
2018-01-05T03:02:37.171Z,7.60
2018-01-05T03:05:04.647Z,7.60
2018-01-05T03:07:32.120Z,7.60
2018-01-05T03:09:59.635Z,7.60
2018-01-05T03:12:27.906Z,7.60
2018-01-05T03:14:56.186Z,7.60
2018-01-05T03:17:23.677Z,7.60
2018-01-05T03:19:51.214Z,7.60
2018-01-05T03:22:18.674Z,7.60
2018-01-05T03:24:46.161Z,7.60
2018-01-05T03:27:13.669Z,7.60
2018-01-05T03:29:41.215Z,7.60
2018-01-05T03:32:08.694Z,7.60
2018-01-05T03:34:36.242Z,7.70
2018-01-05T03:37:03.754Z,7.60
2018-01-05T03:39:31.305Z,7.60
2018-01-05T03:41:58.826Z,7.60
2018-01-05T03:44:27.101Z,7.60
2018-01-05T03:46:55.422Z,7.60
2018-01-05T03:49:22.929Z,7.60
2018-01-05T03:51:51.217Z,7.50
2018-01-05T03:54:19.455Z,7.60
2018-01-05T03:56:46.990Z,7.60
2018-01-05T03:59:14.494Z,7.60
2018-01-05T04:01:42.767Z,7.60
2018-01-05T04:04:10.245Z,7.60
2018-01-05T04:06:37.738Z,7.50
2018-01-05T04:09:05.239Z,7.60
2018-01-05T04:11:32.738Z,7.50
2018-01-05T04:14:00.281Z,7.50
2018-01-05T04:16:27.773Z,7.50
2018-01-05T04:18:55.261Z,7.50
2018-01-05T04:21:22.754Z,7.50
2018-01-05T04:23:50.267Z,7.50
2018-01-05T04:26:17.778Z,7.60
2018-01-05T04:28:45.319Z,7.60
2018-01-05T04:31:13.626Z,7.50
2018-01-05T04:33:41.146Z,7.50
2018-01-05T04:36:09.431Z,7.50
2018-01-05T04:38:37.693Z,7.50
2018-01-05T04:41:05.182Z,7.50
2018-01-05T04:43:32.705Z,7.50
2018-01-05T04:46:00.201Z,7.50
2018-01-05T04:48:27.661Z,7.40
2018-01-05T04:50:55.174Z,7.40
2018-01-05T04:53:22.670Z,7.30
2018-01-05T04:55:50.173Z,7.40
2018-01-05T04:58:17.673Z,7.40
2018-01-05T05:00:45.954Z,7.40
2018-01-05T05:03:14.259Z,7.30
2018-01-05T05:05:41.723Z,7.30
2018-01-05T05:08:09.216Z,7.30
2018-01-05T05:10:36.709Z,7.30
2018-01-05T05:13:04.222Z,7.30
2018-01-05T05:15:37.558Z,7.30
2018-01-05T05:18:05.025Z,7.30
2018-01-05T05:20:32.540Z,7.20
2018-01-05T05:23:00.048Z,7.20
2018-01-05T05:25:27.519Z,7.20
2018-01-05T05:27:54.986Z,7.10
2018-01-05T05:30:22.538Z,7.00
2018-01-05T05:32:50.021Z,7.00
2018-01-05T05:35:17.503Z,7.00
2018-01-05T05:37:45.014Z,7.00
2018-01-05T05:40:12.506Z,6.90
2018-01-05T05:42:40.035Z,6.90
2018-01-05T05:45:07.525Z,6.90
2018-01-05T05:47:34.994Z,6.90
2018-01-05T05:50:02.518Z,6.90
2018-01-05T05:52:30.065Z,7.10
2018-01-05T05:54:57.529Z,7.20
2018-01-05T05:57:25.058Z,7.20
2018-01-05T05:59:52.534Z,7.10
2018-01-05T06:02:20.011Z,7.00
2018-01-05T06:04:47.529Z,6.90
2018-01-05T06:07:15.025Z,6.80
2018-01-05T06:09:42.530Z,6.70
2018-01-05T06:12:10.763Z,6.50
2018-01-05T06:14:38.237Z,6.50
2018-01-05T06:17:05.715Z,6.50
2018-01-05T06:19:33.967Z,6.30
2018-01-05T06:22:01.446Z,6.30
2018-01-05T06:24:29.720Z,6.20
2018-01-05T06:26:57.211Z,6.20
2018-01-05T06:29:24.705Z,6.20
2018-01-05T06:31:52.214Z,6.10
2018-01-05T06:34:20.488Z,6.10
2018-01-05T06:36:47.962Z,6.00
2018-01-05T06:39:15.502Z,6.00
2018-01-05T06:41:43.793Z,6.00
2018-01-05T06:44:11.298Z,6.00
2018-01-05T06:49:11.109Z,6.00
2018-01-05T06:51:38.620Z,6.00
2018-01-05T06:54:06.115Z,6.10
2018-01-05T06:56:33.630Z,6.00
2018-01-05T06:59:01.960Z,6.00
2018-01-05T07:01:29.486Z,6.00
2018-01-05T07:03:57.002Z,6.00
2018-01-05T07:06:24.721Z,6.00
2018-01-05T07:08:55.087Z,6.00
2018-01-05T07:11:22.569Z,6.00
2018-01-05T07:13:50.083Z,5.90
2018-01-05T07:16:17.557Z,5.90
2018-01-05T07:18:45.070Z,5.90
2018-01-05T07:21:12.622Z,5.90
2018-01-05T07:23:40.886Z,5.90
2018-01-05T07:26:09.147Z,5.90
2018-01-05T07:28:36.628Z,5.90
2018-01-05T07:31:04.244Z,5.90
2018-01-05T07:33:31.730Z,5.90
2018-01-05T07:35:59.246Z,5.90
2018-01-05T07:38:26.717Z,5.90
2018-01-05T07:40:54.252Z,5.90
2018-01-05T07:43:21.765Z,5.90
2018-01-05T07:45:49.254Z,5.90
2018-01-05T07:48:16.747Z,5.90
2018-01-05T07:50:44.298Z,5.90
2018-01-05T07:53:11.801Z,5.90
2018-01-05T07:55:40.054Z,5.80
2018-01-05T07:58:07.545Z,5.80
2018-01-05T08:00:35.902Z,5.90
2018-01-05T08:03:03.407Z,5.90
2018-01-05T08:05:30.893Z,5.80
2018-01-05T08:07:58.549Z,5.80
2018-01-05T08:10:26.019Z,5.80
2018-01-05T08:12:55.186Z,5.70
2018-01-05T08:15:22.728Z,5.70
2018-01-05T08:17:50.994Z,5.70
2018-01-05T08:20:19.259Z,5.70
2018-01-05T08:22:46.752Z,5.70
2018-01-05T08:25:14.338Z,5.70
2018-01-05T08:27:41.817Z,5.70
2018-01-05T08:30:09.432Z,5.70
2018-01-05T08:32:38.567Z,5.70
2018-01-05T08:35:06.059Z,5.70
2018-01-05T08:37:34.331Z,5.70
2018-01-05T08:40:02.634Z,5.70
2018-01-05T08:42:30.115Z,5.70
2018-01-05T08:44:57.742Z,5.80
2018-01-05T08:47:25.293Z,5.80
2018-01-05T08:49:53.555Z,5.80
2018-01-05T08:52:21.042Z,5.80
2018-01-05T08:54:48.588Z,5.90
2018-01-05T08:57:16.833Z,5.90
2018-01-05T08:59:44.335Z,5.90
2018-01-05T09:02:11.878Z,5.90
2018-01-05T09:04:40.126Z,5.90
2018-01-05T09:07:07.664Z,5.90
2018-01-05T09:09:35.147Z,5.90
2018-01-05T09:12:02.626Z,5.90
2018-01-05T09:14:30.894Z,6.00
2018-01-05T09:16:58.393Z,6.00
2018-01-05T09:19:28.979Z,6.00
2018-01-05T09:22:02.562Z,6.00
2018-01-05T09:24:30.054Z,6.10
2018-01-05T09:26:58.318Z,6.00
2018-01-05T09:29:26.579Z,6.00
2018-01-05T09:31:54.037Z,6.00
2018-01-05T09:34:21.509Z,6.00
2018-01-05T09:36:48.989Z,6.10
2018-01-05T09:39:16.537Z,6.10
2018-01-05T09:41:44.805Z,6.20
2018-01-05T09:44:13.050Z,6.20
2018-01-05T09:46:40.545Z,6.20
2018-01-05T09:49:08.795Z,6.20
2018-01-05T09:51:36.282Z,6.20
2018-01-05T09:54:07.843Z,6.20
2018-01-05T09:56:35.316Z,6.20
2018-01-05T09:59:02.771Z,6.30
2018-01-05T10:01:46.999Z,6.30
2018-01-05T10:04:15.226Z,6.30
2018-01-05T10:06:42.690Z,6.30
2018-01-05T10:09:10.218Z,6.30
2018-01-05T10:11:37.673Z,6.40
2018-01-05T10:14:05.179Z,6.40
2018-01-05T10:16:32.726Z,6.50
2018-01-05T10:19:00.227Z,6.50
2018-01-05T10:21:28.497Z,6.60
2018-01-05T10:23:56.749Z,6.60
2018-01-05T10:26:24.251Z,6.60
2018-01-05T10:28:55.142Z,6.60
2018-01-05T10:31:22.609Z,6.60
2018-01-05T10:33:50.078Z,6.60
2018-01-05T10:36:18.357Z,6.70
2018-01-05T10:38:45.837Z,6.70
2018-01-05T10:41:14.114Z,6.70
2018-01-05T10:43:41.578Z,6.70
2018-01-05T10:46:09.065Z,6.70
2018-01-05T10:48:36.543Z,6.80
2018-01-05T10:51:04.018Z,6.80
2018-01-05T10:53:31.511Z,6.80
2018-01-05T10:55:59.011Z,6.90
2018-01-05T10:58:26.489Z,6.90
2018-01-05T11:00:53.983Z,6.90
2018-01-05T11:03:21.467Z,7.00
2018-01-05T11:05:49.001Z,7.00
2018-01-05T11:08:16.504Z,7.00
2018-01-05T11:10:43.999Z,7.00
2018-01-05T11:13:12.237Z,7.10
2018-01-05T11:15:39.735Z,7.00
2018-01-05T11:18:07.236Z,7.10
2018-01-05T11:20:34.737Z,7.20
2018-01-05T11:23:02.254Z,7.20
2018-01-05T11:25:29.771Z,7.20
2018-01-05T11:27:57.281Z,7.20
2018-01-05T11:30:24.734Z,7.20
2018-01-05T11:32:52.226Z,7.20
2018-01-05T11:35:20.485Z,7.20
2018-01-05T11:37:47.986Z,7.20
2018-01-05T11:40:15.498Z,7.20
2018-01-05T11:42:42.999Z,7.30
2018-01-05T11:45:10.505Z,7.30
2018-01-05T11:47:37.982Z,7.30
2018-01-05T11:50:05.491Z,7.30
2018-01-05T11:52:32.990Z,7.30
2018-01-05T11:55:01.038Z,7.30
2018-01-05T11:57:28.530Z,7.30
2018-01-05T11:59:57.621Z,7.40
2018-01-05T12:02:25.092Z,7.40
2018-01-05T12:04:53.329Z,7.30
2018-01-05T12:07:20.846Z,7.30
2018-01-05T12:09:48.390Z,7.40
2018-01-05T12:12:22.375Z,7.40
2018-01-05T12:14:49.877Z,7.40
2018-01-05T12:17:38.028Z,7.40
2018-01-05T12:20:07.775Z,7.50
2018-01-05T12:22:50.849Z,7.50
2018-01-05T12:25:21.953Z,7.50
2018-01-05T12:27:55.879Z,7.60
2018-01-05T12:30:23.364Z,7.50
2018-01-05T12:32:50.848Z,7.60
2018-01-05T12:35:18.475Z,7.60
2018-01-05T12:42:58.787Z,7.60
2018-01-05T12:45:39.989Z,7.60
2018-01-05T12:48:33.256Z,7.70
2018-01-05T12:51:06.512Z,7.70
2018-01-05T12:53:34.808Z,7.60
2018-01-05T12:56:09.195Z,7.60
2018-01-05T12:58:41.669Z,7.60
2018-01-05T13:01:12.694Z,7.60
2018-01-05T13:03:41.597Z,7.60
2018-01-05T13:06:15.350Z,7.60
2018-01-05T13:08:46.331Z,7.60
2018-01-05T13:16:33.286Z,7.50
2018-01-05T13:19:05.441Z,7.50
2018-01-05T13:24:23.910Z,7.50
2018-01-05T13:26:51.420Z,7.50
2018-01-05T13:29:18.909Z,7.40
2018-01-05T13:31:56.517Z,7.40
2018-01-05T13:34:24.006Z,7.40
2018-01-05T13:36:51.553Z,7.40
2018-01-05T13:39:19.835Z,7.40
2018-01-05T13:41:48.113Z,7.40
2018-01-05T13:44:15.661Z,7.40
2018-01-05T13:46:46.777Z,7.40
2018-01-05T13:49:14.269Z,7.40
2018-01-05T13:51:42.545Z,7.40
2018-01-05T13:54:10.821Z,7.40
2018-01-05T13:56:42.660Z,7.40
2018-01-05T13:59:10.214Z,7.40
2018-01-05T14:01:41.514Z,7.40
2018-01-05T14:06:57.353Z,7.60
2018-01-05T14:12:21.193Z,7.70
2018-01-05T14:14:55.245Z,7.60
2018-01-05T14:17:35.350Z,7.60
2018-01-05T14:20:16.886Z,7.70
2018-01-05T14:22:49.658Z,7.70
2018-01-05T14:25:27.094Z,7.70
2018-01-05T14:27:55.359Z,7.70
2018-01-05T14:30:22.844Z,7.70
2018-01-05T14:32:59.109Z,7.70
2018-01-05T14:35:27.346Z,7.70
2018-01-05T14:37:54.880Z,7.70
2018-01-05T14:40:23.810Z,7.60
2018-01-05T14:42:55.057Z,7.70
2018-01-05T14:45:29.507Z,7.70
2018-01-05T14:50:34.054Z,7.70
2018-01-05T14:53:03.070Z,7.70
2018-01-05T14:55:30.595Z,7.60
2018-01-05T14:57:59.220Z,7.70
2018-01-05T15:00:26.770Z,7.60
2018-01-05T15:02:54.253Z,7.70
2018-01-05T15:05:21.768Z,7.70
2018-01-05T15:07:49.299Z,7.70
2018-01-05T15:10:16.794Z,7.80
2018-01-05T15:12:44.473Z,7.70
2018-01-05T15:15:12.000Z,7.80
2018-01-05T15:17:42.681Z,7.80
2018-01-05T15:20:10.938Z,7.70
2018-01-05T15:22:48.259Z,7.70
2018-01-05T15:25:15.761Z,7.70
2018-01-05T15:27:55.773Z,7.70
2018-01-05T15:30:23.273Z,7.70
2018-01-05T15:32:50.745Z,7.60
2018-01-05T15:35:18.265Z,7.60
2018-01-05T15:37:45.776Z,7.60
2018-01-05T15:40:13.286Z,7.60
2018-01-05T15:42:40.798Z,7.70
2018-01-05T15:45:08.281Z,7.80
2018-01-05T15:47:35.766Z,7.90
2018-01-05T15:50:04.011Z,8.00
2018-01-05T15:52:31.487Z,8.00
2018-01-05T15:54:58.974Z,8.00
2018-01-05T15:57:26.449Z,8.00
2018-01-05T15:59:53.957Z,7.80
2018-01-05T16:02:21.452Z,7.80
2018-01-05T16:04:48.986Z,7.70
2018-01-05T16:07:16.633Z,7.70
2018-01-05T16:09:44.119Z,7.70
2018-01-05T16:12:12.398Z,7.60
2018-01-05T16:14:40.625Z,7.60
2018-01-05T16:17:08.139Z,7.60
2018-01-05T16:19:35.642Z,7.60
2018-01-05T16:22:03.135Z,7.50
2018-01-05T16:24:30.655Z,7.50
2018-01-05T16:26:58.201Z,7.50
2018-01-05T16:29:25.672Z,7.50
2018-01-05T16:31:53.774Z,7.50
2018-01-05T16:34:21.266Z,7.40
2018-01-05T16:36:48.825Z,7.40
2018-01-05T16:39:16.377Z,7.40
2018-01-05T16:41:43.886Z,7.40
2018-01-05T16:44:11.398Z,7.50
2018-01-05T16:46:38.873Z,7.50
2018-01-05T16:49:06.394Z,7.50
2018-01-05T16:51:34.646Z,7.60
2018-01-05T16:54:02.139Z,7.60
2018-01-05T16:56:30.394Z,7.70
2018-01-05T16:58:57.877Z,7.70
2018-01-05T17:01:26.175Z,7.80
2018-01-05T17:03:53.663Z,7.70
2018-01-05T17:06:21.147Z,7.80
2018-01-05T17:08:49.488Z,7.80
2018-01-05T17:11:16.960Z,7.80
2018-01-05T17:13:44.468Z,7.90
2018-01-05T17:16:11.978Z,8.00
2018-01-05T17:18:39.445Z,8.10
2018-01-05T17:21:06.951Z,8.10
2018-01-05T17:23:34.423Z,8.10
2018-01-05T17:26:01.922Z,8.10
2018-01-05T17:28:29.450Z,8.10
2018-01-05T17:30:56.947Z,8.10
2018-01-05T17:33:24.455Z,8.10
2018-01-05T17:35:51.969Z,8.10
2018-01-05T17:38:20.213Z,8.10
2018-01-05T17:40:47.730Z,8.10
2018-01-05T17:43:15.202Z,8.10
2018-01-05T17:45:42.705Z,8.00
2018-01-05T17:48:10.234Z,8.00
2018-01-05T17:50:37.739Z,8.00
2018-01-05T17:53:05.996Z,8.00
2018-01-05T17:55:33.461Z,8.00
2018-01-05T17:58:00.958Z,7.90
2018-01-05T18:00:28.443Z,7.90
2018-01-05T18:02:55.941Z,7.90
2018-01-05T18:05:23.433Z,7.90
2018-01-05T18:07:50.897Z,7.90
2018-01-05T18:10:18.382Z,7.90
2018-01-05T18:12:45.913Z,7.90
2018-01-05T18:15:13.429Z,7.90
2018-01-05T18:17:40.906Z,7.80
2018-01-05T18:20:08.389Z,7.80
2018-01-05T18:22:35.915Z,7.80
2018-01-05T18:25:04.211Z,7.70
2018-01-05T18:27:31.694Z,7.70
2018-01-05T18:29:59.161Z,7.70
2018-01-05T18:32:26.653Z,7.70
2018-01-05T18:34:54.163Z,7.70
2018-01-05T18:37:21.635Z,7.70
2018-01-05T18:39:49.146Z,7.70
2018-01-05T18:42:17.393Z,7.60
2018-01-05T18:44:44.926Z,7.60
2018-01-05T18:47:12.418Z,7.60
2018-01-05T18:49:39.901Z,7.60
2018-01-05T18:52:08.145Z,7.50
2018-01-05T18:54:35.645Z,7.50
2018-01-05T18:57:03.133Z,7.40
2018-01-05T18:59:30.655Z,7.30
2018-01-05T19:01:58.973Z,7.10
2018-01-05T19:04:26.486Z,7.10
2018-01-05T19:06:54.010Z,7.00
2018-01-05T19:09:21.520Z,7.00
2018-01-05T19:11:49.050Z,6.90
2018-01-05T19:14:16.945Z,6.80
2018-01-05T19:16:44.439Z,6.70
2018-01-05T19:19:12.638Z,6.60
2018-01-05T19:21:40.124Z,6.60
2018-01-05T19:24:07.982Z,6.50
2018-01-05T19:26:47.643Z,6.50
2018-01-05T19:29:19.263Z,6.50
2018-01-05T19:31:52.539Z,6.50
2018-01-05T19:34:23.360Z,6.50
2018-01-05T19:36:51.547Z,6.50
2018-01-05T19:44:39.060Z,6.40
2018-01-05T19:47:08.012Z,6.40
2018-01-05T19:49:40.665Z,6.30
2018-01-05T19:52:14.729Z,6.20
2018-01-05T19:54:49.247Z,6.10
2018-01-05T20:03:41.476Z,6.00
2018-01-05T20:06:09.075Z,5.90
2018-01-05T20:08:36.548Z,5.80
2018-01-05T20:11:04.044Z,5.80
2018-01-05T20:13:31.691Z,5.80
2018-01-05T20:15:59.222Z,5.70
2018-01-05T20:21:23.307Z,5.60
2018-01-05T20:23:50.781Z,5.60
2018-01-05T20:26:19.043Z,5.50
2018-01-05T20:28:46.530Z,5.50
2018-01-05T20:31:14.070Z,5.50
2018-01-05T20:33:41.543Z,5.50
2018-01-05T20:36:09.050Z,5.50
2018-01-05T20:38:36.537Z,5.50
2018-01-05T20:41:04.011Z,5.50
2018-01-05T20:43:32.238Z,5.40
2018-01-05T20:45:59.727Z,5.40
2018-01-05T20:48:27.237Z,5.40
2018-01-05T20:50:54.722Z,5.40
2018-01-05T20:53:22.218Z,5.40
2018-01-05T20:55:50.475Z,5.40
2018-01-05T20:58:18.059Z,5.30
2018-01-05T21:00:56.788Z,5.30
2018-01-05T21:03:24.299Z,5.30
2018-01-05T21:05:51.797Z,5.30
2018-01-05T21:08:20.071Z,5.30
2018-01-05T21:10:48.344Z,5.30
2018-01-05T21:13:16.630Z,5.30
2018-01-05T21:15:44.878Z,5.30
2018-01-05T21:18:12.381Z,5.30
2018-01-05T21:20:39.884Z,5.20
2018-01-05T21:23:07.400Z,5.20
2018-01-05T21:25:34.894Z,5.20
2018-01-05T21:28:02.409Z,5.20
2018-01-05T21:30:29.898Z,5.10
2018-01-05T21:32:57.438Z,5.10
2018-01-05T21:35:24.958Z,5.10
2018-01-05T21:37:52.511Z,5.00
2018-01-05T21:40:20.030Z,5.00
2018-01-05T21:42:53.810Z,5.00
2018-01-05T21:45:21.312Z,5.00
2018-01-05T21:47:48.825Z,4.90
2018-01-05T21:50:20.616Z,5.00
2018-01-05T22:01:14.281Z,4.90
2018-01-05T22:03:41.797Z,4.90
2018-01-05T22:06:09.291Z,4.80
2018-01-05T22:08:36.822Z,4.80
2018-01-05T22:11:04.320Z,4.80
2018-01-05T22:13:31.834Z,4.80
2018-01-05T22:15:59.354Z,4.80
2018-01-05T22:18:26.853Z,4.80
2018-01-05T22:20:54.366Z,4.80
2018-01-05T22:23:22.640Z,4.80
2018-01-05T22:25:50.909Z,4.80
2018-01-05T22:28:18.406Z,4.80
2018-01-05T22:30:45.922Z,4.80
2018-01-05T22:33:13.425Z,4.70
2018-01-05T22:35:40.898Z,4.80
2018-01-05T22:38:08.420Z,4.70
2018-01-05T22:40:35.961Z,4.70
2018-01-05T22:43:04.252Z,4.70
2018-01-05T22:45:31.766Z,4.70
2018-01-05T22:47:59.270Z,4.70
2018-01-05T22:50:26.786Z,4.60
2018-01-05T22:55:58.246Z,4.60
2018-01-05T22:58:33.628Z,4.60
2018-01-05T23:03:58.279Z,4.50
2018-01-05T23:06:25.757Z,4.50
2018-01-05T23:08:53.266Z,4.60
2018-01-05T23:11:21.514Z,4.60
2018-01-05T23:13:53.302Z,4.60
2018-01-05T23:16:31.543Z,4.60
2018-01-05T23:18:59.023Z,4.60
2018-01-05T23:21:26.533Z,4.60
2018-01-05T23:23:54.086Z,4.60
2018-01-05T23:29:34.545Z,4.70
2018-01-05T23:32:08.852Z,4.70
2018-01-05T23:34:55.904Z,4.70
2018-01-05T23:37:23.433Z,4.80
2018-01-05T23:40:10.389Z,4.80
2018-01-05T23:42:37.890Z,4.80
2018-01-05T23:45:06.173Z,4.80
2018-01-05T23:47:35.196Z,4.80
2018-01-05T23:50:10.052Z,4.80
2018-01-05T23:52:37.519Z,4.70
2018-01-05T23:57:43.762Z,4.70
